createdAt,value
2023-03-27T15:44:26.713Z,98391.96
2023-03-27T15:47:03.210Z,98389.92
2023-03-27T15:49:35.749Z,98392.61
2023-03-27T15:52:31.601Z,98393.75
2023-03-27T15:55:01.740Z,98396.64
2023-03-27T15:57:32.764Z,98391.75
2023-03-27T16:00:11.261Z,98382.93
2023-03-27T16:02:54.335Z,98385.75
2023-03-27T16:05:38.248Z,98381.84
2023-03-27T16:08:07.495Z,98383.88
2023-03-27T16:10:42.832Z,98383.85
2023-03-27T16:14:06.727Z,98382.56
2023-03-27T16:16:40.855Z,98384.52
2023-03-27T16:19:14.552Z,98380.90
2023-03-27T16:22:11.179Z,98386.15
2023-03-27T16:24:50.781Z,98383.27
2023-03-27T16:27:49.581Z,98380.96
2023-03-27T16:30:43.131Z,98384.47
2023-03-27T16:33:36.904Z,98395.61
2023-03-27T16:36:45.261Z,98388.25
2023-03-27T16:39:50.252Z,98390.14
2023-03-27T16:42:25.785Z,98398.49
2023-03-27T16:44:57.177Z,98398.22
2023-03-27T16:47:35.166Z,98393.26
2023-03-27T16:50:11.581Z,98401.79
2023-03-27T16:52:45.026Z,98397.19
2023-03-27T16:55:15.604Z,98399.83
2023-03-27T16:58:06.312Z,98404.25
2023-03-27T17:01:09.732Z,98397.55
2023-03-27T17:03:42.632Z,98399.81
2023-03-27T17:06:15.277Z,98400.83
2023-03-27T17:08:55.935Z,98398.27
2023-03-27T17:11:25.880Z,98403.95
2023-03-27T17:14:10.902Z,98405.23
2023-03-27T17:16:41.521Z,98406.56
2023-03-27T17:19:10.652Z,98413.93
2023-03-27T17:21:41.275Z,98410.29
2023-03-27T17:24:14.193Z,98405.52
2023-03-27T17:26:50.099Z,98407.67
2023-03-27T17:29:34.501Z,98407.74
2023-03-27T17:32:05.798Z,98408.60
2023-03-27T17:34:46.840Z,98404.10
2023-03-27T17:37:19.151Z,98402.77
2023-03-27T17:39:50.162Z,98405.40
2023-03-27T17:42:44.920Z,98410.02
2023-03-27T17:45:23.110Z,98410.09
2023-03-27T17:47:53.197Z,98403.91
2023-03-27T17:50:27.004Z,98401.96
2023-03-27T17:53:00.847Z,98405.55
2023-03-27T17:55:43.067Z,98398.84
2023-03-27T17:58:16.667Z,98399.80
2023-03-27T18:00:47.013Z,98390.58
2023-03-27T18:03:20.422Z,98394.66
2023-03-27T18:05:49.596Z,98390.03
2023-03-27T18:08:21.215Z,98396.61
2023-03-27T18:10:52.541Z,98392.08
2023-03-27T18:13:23.530Z,98397.06
2023-03-27T18:15:59.541Z,98397.61
2023-03-27T18:18:30.317Z,98399.90
2023-03-27T18:21:04.717Z,98396.30
2023-03-27T18:23:45.459Z,98403.80
2023-03-27T18:26:18.742Z,98406.39
2023-03-27T18:28:48.442Z,98401.91
2023-03-27T18:31:19.092Z,98403.80
2023-03-27T18:33:52.759Z,98403.63
2023-03-27T18:36:24.787Z,98403.65
2023-03-27T18:38:59.830Z,98400.17
2023-03-27T18:41:31.646Z,98403.34
2023-03-27T18:44:00.578Z,98401.95
2023-03-27T18:46:39.113Z,98411.09
2023-03-27T18:49:24.473Z,98408.21
2023-03-27T18:51:54.234Z,98395.52
2023-03-27T18:57:45.361Z,98396.25
2023-03-27T19:00:21.828Z,98394.41
2023-03-27T19:03:01.828Z,98394.52
2023-03-27T19:05:40.657Z,98394.20
2023-03-27T19:08:25.220Z,98395.64
2023-03-27T19:11:10.608Z,98405.75
2023-03-27T19:14:27.112Z,98409.09
2023-03-27T19:17:19.560Z,98409.02
2023-03-27T19:20:10.899Z,98403.20
2023-03-27T19:23:07.504Z,98400.73
2023-03-27T19:25:43.082Z,98392.52
2023-03-27T19:28:14.332Z,98372.08
2023-03-27T19:30:47.832Z,98368.75
2023-03-27T19:33:21.083Z,98352.33
2023-03-27T19:35:54.647Z,98357.98
2023-03-27T19:38:27.320Z,98351.42
2023-03-27T19:41:02.528Z,98351.21
2023-03-27T19:43:37.739Z,98357.03
2023-03-27T19:46:16.528Z,98356.11
2023-03-27T19:48:48.156Z,98349.11
2023-03-27T19:51:30.429Z,98344.19
2023-03-27T19:54:09.519Z,98345.08
2023-03-27T19:56:39.509Z,98353.89
2023-03-27T19:59:34.006Z,98350.87
2023-03-27T20:02:08.374Z,98350.33
2023-03-27T20:04:39.220Z,98348.43
2023-03-27T20:07:15.642Z,98348.48
2023-03-27T20:09:55.329Z,98350.11
2023-03-27T20:12:26.011Z,98346.90
2023-03-27T20:15:13.062Z,98336.61
2023-03-27T20:17:49.096Z,98337.62
2023-03-27T20:20:20.538Z,98323.83
2023-03-27T20:22:58.185Z,98324.68
2023-03-27T20:25:32.713Z,98329.58
2023-03-27T20:28:02.852Z,98321.90
2023-03-27T20:30:34.099Z,98321.80
2023-03-27T20:33:05.180Z,98314.73
2023-03-27T20:35:37.144Z,98312.91
2023-03-27T20:38:12.105Z,98319.87
2023-03-27T20:40:53.696Z,98306.81
2023-03-27T20:43:35.240Z,98304.88
2023-03-27T20:46:07.828Z,98297.75
2023-03-27T20:48:41.930Z,98303.85
2023-03-27T20:51:15.820Z,98304.67
2023-03-27T20:53:54.477Z,98302.39
2023-03-27T20:56:27.242Z,98314.08
2023-03-27T20:58:56.447Z,98318.09
2023-03-27T21:01:28.542Z,98321.25
2023-03-27T21:04:03.512Z,98332.53
2023-03-27T21:06:38.842Z,98312.70
2023-03-27T21:09:14.066Z,98314.81
2023-03-27T21:11:45.422Z,98314.95
2023-03-27T21:14:16.768Z,98310.14
2023-03-27T21:16:50.019Z,98309.53
2023-03-27T21:19:23.612Z,98301.86
2023-03-27T21:21:54.179Z,98292.04
2023-03-27T21:24:24.337Z,98283.62
2023-03-27T21:26:58.340Z,98285.63
2023-03-27T21:29:38.598Z,98284.57
2023-03-27T21:32:09.514Z,98281.27
2023-03-27T21:34:41.943Z,98272.48
2023-03-27T21:37:14.913Z,98266.95
2023-03-27T21:39:47.470Z,98264.20
2023-03-27T21:42:29.787Z,98262.49
2023-03-27T21:45:08.667Z,98258.80
2023-03-27T21:47:47.590Z,98261.41
2023-03-27T21:50:23.321Z,98258.91
2023-03-27T21:53:06.787Z,98256.76
2023-03-27T21:55:39.972Z,98255.96
2023-03-27T21:58:16.461Z,98257.27
2023-03-27T22:01:01.048Z,98259.27
2023-03-27T22:03:31.872Z,98258.08
2023-03-27T22:06:12.252Z,98255.58
2023-03-27T22:08:44.331Z,98260.38
2023-03-27T22:11:13.780Z,98258.23
2023-03-27T22:13:44.326Z,98258.35
2023-03-27T22:16:18.554Z,98255.61
2023-03-27T22:18:51.512Z,98256.21
2023-03-27T22:25:31.855Z,98254.08
2023-03-27T22:28:39.182Z,98251.33
2023-03-27T22:38:15.898Z,98254.84
2023-03-27T22:44:45.838Z,98253.67
2023-03-27T22:48:27.899Z,98253.69
2023-03-27T22:54:49.491Z,98256.23
2023-03-27T22:57:47.272Z,98257.90
2023-03-27T23:00:18.836Z,98248.55
2023-03-27T23:03:03.396Z,98243.89
2023-03-27T23:05:50.757Z,98234.20
2023-03-27T23:08:27.371Z,98222.09
2023-03-27T23:11:00.677Z,98213.50
2023-03-27T23:13:34.805Z,98214.04
2023-03-27T23:16:11.438Z,98223.33
2023-03-27T23:18:43.657Z,98221.30
2023-03-27T23:21:13.959Z,98226.53
2023-03-27T23:23:44.156Z,98219.35
2023-03-27T23:26:13.165Z,98217.36
2023-03-27T23:28:48.322Z,98215.16
2023-03-27T23:31:18.296Z,98215.32
2023-03-27T23:33:51.510Z,98212.21
2023-03-27T23:36:23.166Z,98211.73
2023-03-27T23:38:53.083Z,98212.79
2023-03-27T23:41:24.816Z,98209.63
2023-03-27T23:43:54.174Z,98204.15
2023-03-27T23:46:25.616Z,98199.23
2023-03-27T23:48:55.591Z,98191.96
2023-03-27T23:51:29.503Z,98194.82
2023-03-27T23:54:03.115Z,98188.11
2023-03-27T23:56:31.701Z,98189.60
2023-03-27T23:59:00.577Z,98187.94
